Prague, NE (68050)

7:41 AM CST on February 07, 2016 (GMT -0600)
Corner of Highway Ave & Railroad Ave | | Change Station
CLOSE
Current Station
Personal Weather Station
Location: Prague, NE
Elevation: 1348 ft
Nearby Weather Stations

Elev 1348 ft 41.31 °N, 96.81 °W | Updated 7 seconds ago

Partly Cloudy
Partly Cloudy
37.5 °F
Feels Like 33 °F
N
5.9
Wind Variable Wind from WNW
Gusts 11.5 mph

Today
High -- | Low -- °F
--% Chance of Precip.
Yesterday
High -- | Low -- °F
Precip. -- in
Pressure 29.99 in
Visibility 10.0 miles
Clouds Clear
Windchill 33 °F
Dew Point 27 °F
Humidity 65%
Rainfall 0.00 in
Snow Depth Not available.
7:32 AM 5:50 PM
Waning Crescent, 1% visible
METAR KAHQ 071335Z AUTO 31016G22KT 10SM CLR 03/M04 A2999 RMK AO2 T00301040
Pressure 29.99 in
Visibility 10.0 miles
Clouds Clear
Windchill 33 °F
Dew Point 27 °F
Humidity 65%
Rainfall 0.00 in
Snow Depth Not available.
7:32 AM 5:50 PM
Waning Crescent, 1% visible
METAR KAHQ 071335Z AUTO 31016G22KT 10SM CLR 03/M04 A2999 RMK AO2 T00301040

10-Day Weather Forecast

Almanac

Astronomy

Feb. 07, 2016 Rise Set
Actual Time
Civil Twilight
Nautical Twilight
Astronomical Twilight
Moon
Length of Visible Light
Length of Day
Tomorrow will be .
, % of the Moon is Illuminated

Today's Extremes

State Highs State Lows

Community

WunderPhotos

Upload Photos

1,891,190 photos uploaded!

WunderBlog® & News

Nearby

Air Quality

  Air Quality AQ Index Pollutant
Not available.

Snow Depth

Station Depth Elevation

Earthquake Activity

City Distance Mag. Time & Date
Minimum magnitude displayed is 2.5.

Coastal Water Temperatures

Place Temperature

Stations

Nearby Weather Stations

Station Location Temp. Windchill Dew Point Humidity Wind Precip. Elev Updated Type
                   

Watches & Warnings

There are currently no watches in effect.